La Sarre, Canada
Current Conditions -  °F | °C
As of 11:00 PM on Sunday 21 Dec 2014 (Local Time) from CYUY Reporting Station
Light Snow Light Snow  
Wind Chill: -13°   Ceiling: 2500
Heat Index: -9°   Visibility: 15mi
Dew Point: -10°   Wind: 5mph
Humidity: 93%   Direction: 150°SSE
Pressure: 30.23"   Gusts: NA
Location:  48.8°N, 79.2°W
Report Text: CYUY 220400Z 15004KT 15SM -SN OVC025 M09/M10 A3023 RMK SC8 SLP263
Loading
Personal Weather Stations






























Interactive Weather Map New forecast layout! Learn more

10-Day Weather Forecast

Advertisements
Track Severe Weather on mobile